IGO301 VTSP-VABB
Flight info
| Callsign | IGO301 |
|---|---|
| Flight time | N/A |
| Altitude | 34000 |
| Route | VTSP/09 N0463F360 UBNE1A UBNEN DCT IDKUT DCT EMRAN DCT AGEGA DCT AMVUR DCT DUMAR L518 HIA W18 PONIP Z5 BEDOL MOLG2A VABB/27 |
| Aircraft | A321/M-SDFGHIRWY/C |
Departure
| Time | 2026-04-27 10:56 |
|---|---|
| Airport | Phuket International Airport (VTSP) |
Arrival
| Time | N/A |
|---|---|
| Airport | Chhatrapati Shivaji Maharaj International Airport (VABB) |
| Time | Latitude | Longitude | Altitude | Speed | Heading |
|---|---|---|---|---|---|
| 2026-04-27 10:29 | 8.10900 | 98.30555 | 5 ft | 0 kts | 106° |
| 2026-04-27 10:43 | 8.10903 | 98.30545 | 4 ft | 3 kts | 106° |
| 2026-04-27 10:43 | 8.10909 | 98.30526 | 5 ft | 3 kts | 106° |
| 2026-04-27 10:43 | 8.10914 | 98.30508 | 5 ft | 3 kts | 106° |
| 2026-04-27 10:44 | 8.10920 | 98.30489 | 4 ft | 3 kts | 106° |
| 2026-04-27 10:44 | 8.10925 | 98.30470 | 4 ft | 3 kts | 97° |
| 2026-04-27 10:44 | 8.10920 | 98.30452 | 3 ft | 3 kts | 33° |
| 2026-04-27 10:44 | 8.10902 | 98.30449 | 3 ft | 3 kts | 347° |
| 2026-04-27 10:45 | 8.10891 | 98.30450 | 4 ft | 0 kts | 8° |
| 2026-04-27 10:49 | 8.10892 | 98.30450 | 4 ft | 1 kts | 8° |
| 2026-04-27 10:49 | 8.10903 | 98.30452 | 5 ft | 2 kts | 8° |
| 2026-04-27 10:49 | 8.10924 | 98.30455 | 4 ft | 4 kts | 8° |
| 2026-04-27 10:50 | 8.10959 | 98.30463 | 3 ft | 11 kts | 16° |
| 2026-04-27 10:50 | 8.11076 | 98.30499 | 3 ft | 19 kts | 15° |
| 2026-04-27 10:50 | 8.11176 | 98.30525 | 2 ft | 6 kts | 359° |
| 2026-04-27 10:50 | 8.11204 | 98.30531 | 2 ft | 3 kts | 52° |
| 2026-04-27 10:51 | 8.11213 | 98.30554 | 3 ft | 4 kts | 77° |
| 2026-04-27 10:51 | 8.11224 | 98.30654 | 5 ft | 27 kts | 85° |
| 2026-04-27 10:51 | 8.11245 | 98.30873 | 11 ft | 33 kts | 85° |
| 2026-04-27 10:51 | 8.11262 | 98.31097 | 18 ft | 31 kts | 85° |
| 2026-04-27 10:52 | 8.11284 | 98.31311 | 23 ft | 30 kts | 84° |
| 2026-04-27 10:52 | 8.11304 | 98.31527 | 29 ft | 35 kts | 85° |
| 2026-04-27 10:52 | 8.11324 | 98.31768 | 34 ft | 34 kts | 85° |
| 2026-04-27 10:52 | 8.11347 | 98.32001 | 40 ft | 32 kts | 83° |
| 2026-04-27 10:53 | 8.11372 | 98.32225 | 43 ft | 32 kts | 85° |
| 2026-04-27 10:53 | 8.11410 | 98.32655 | 54 ft | 30 kts | 85° |
| 2026-04-27 10:53 | 8.11427 | 98.32852 | 57 ft | 19 kts | 85° |
| 2026-04-27 10:54 | 8.11472 | 98.32956 | 55 ft | 16 kts | 54° |
| 2026-04-27 10:54 | 8.11474 | 98.33012 | 54 ft | 6 kts | 156° |
| 2026-04-27 10:54 | 8.11439 | 98.33013 | 59 ft | 0 kts | 182° |
| 2026-04-27 10:54 | 8.11419 | 98.32993 | 56 ft | 4 kts | 274° |
| 2026-04-27 10:55 | 8.11439 | 98.32956 | 56 ft | 9 kts | 281° |
| 2026-04-27 10:55 | 8.11434 | 98.32877 | 58 ft | 11 kts | 266° |
| 2026-04-27 10:55 | 8.11433 | 98.32873 | 58 ft | 0 kts | 266° |
| 2026-04-27 10:55 | 8.11431 | 98.32845 | 57 ft | 25 kts | 265° |
| 2026-04-27 10:56 | 8.11381 | 98.32329 | 45 ft | 124 kts | 265° |
| 2026-04-27 10:56 | 8.11264 | 98.31163 | 103 ft | 196 kts | 263° |
| 2026-04-27 10:56 | 8.11117 | 98.29772 | 969 ft | 205 kts | 261° |
| 2026-04-27 10:56 | 8.10939 | 98.28232 | 1508 ft | 244 kts | 262° |
| 2026-04-27 10:57 | 8.10765 | 98.26377 | 1914 ft | 285 kts | 263° |
| 2026-04-27 10:57 | 8.10545 | 98.24299 | 2220 ft | 300 kts | 263° |
| 2026-04-27 10:57 | 8.10383 | 98.22201 | 2620 ft | 301 kts | 265° |
| 2026-04-27 10:57 | 8.10302 | 98.20070 | 3079 ft | 306 kts | 268° |
| 2026-04-27 10:58 | 8.10248 | 98.17916 | 3526 ft | 309 kts | 268° |
| 2026-04-27 10:58 | 8.10183 | 98.15733 | 3985 ft | 312 kts | 268° |
| 2026-04-27 10:58 | 8.10105 | 98.13540 | 4446 ft | 314 kts | 267° |
| 2026-04-27 10:58 | 8.09818 | 98.11352 | 4901 ft | 316 kts | 252° |
| 2026-04-27 10:59 | 8.08757 | 98.09435 | 5362 ft | 314 kts | 228° |
| 2026-04-27 10:59 | 8.07248 | 98.07825 | 5817 ft | 316 kts | 222° |
| 2026-04-27 10:59 | 8.05658 | 98.06279 | 6284 ft | 319 kts | 221° |
| 2026-04-27 11:00 | 8.02352 | 98.03081 | 7190 ft | 345 kts | 222° |
| 2026-04-27 11:00 | 8.00608 | 98.01380 | 7647 ft | 360 kts | 222° |
| 2026-04-27 11:00 | 7.98781 | 97.99587 | 8111 ft | 371 kts | 222° |
| 2026-04-27 11:00 | 7.96916 | 97.97752 | 8579 ft | 376 kts | 223° |
| 2026-04-27 11:01 | 7.95037 | 97.95900 | 9053 ft | 378 kts | 223° |
| 2026-04-27 11:01 | 7.93151 | 97.94041 | 9531 ft | 380 kts | 223° |
| 2026-04-27 11:01 | 7.91252 | 97.92170 | 9976 ft | 383 kts | 223° |
| 2026-04-27 11:01 | 7.89407 | 97.90217 | 10414 ft | 386 kts | 229° |
| 2026-04-27 11:02 | 7.87889 | 97.87970 | 10799 ft | 389 kts | 241° |
| 2026-04-27 11:02 | 7.86893 | 97.85461 | 11125 ft | 393 kts | 254° |
| 2026-04-27 11:02 | 7.86468 | 97.82734 | 11459 ft | 395 kts | 266° |
| 2026-04-27 11:02 | 7.86439 | 97.79956 | 11798 ft | 397 kts | 271° |
| 2026-04-27 11:03 | 7.86572 | 97.77169 | 12136 ft | 399 kts | 274° |
| 2026-04-27 11:03 | 7.86782 | 97.74369 | 12483 ft | 401 kts | 274° |
| 2026-04-27 11:03 | 7.87014 | 97.71564 | 12831 ft | 402 kts | 274° |
| 2026-04-27 11:03 | 7.87242 | 97.68749 | 13181 ft | 404 kts | 274° |
| 2026-04-27 11:04 | 7.87455 | 97.65915 | 13540 ft | 406 kts | 274° |
| 2026-04-27 11:04 | 7.87654 | 97.63064 | 13861 ft | 408 kts | 274° |
| 2026-04-27 11:04 | 7.87842 | 97.60204 | 14178 ft | 409 kts | 274° |
| 2026-04-27 11:04 | 7.88024 | 97.57330 | 14497 ft | 412 kts | 274° |
| 2026-04-27 11:05 | 7.88203 | 97.54438 | 14818 ft | 414 kts | 274° |
| 2026-04-27 11:05 | 7.88381 | 97.51567 | 15140 ft | 417 kts | 274° |
| 2026-04-27 11:05 | 7.88562 | 97.48646 | 15470 ft | 419 kts | 274° |
| 2026-04-27 11:05 | 7.88744 | 97.45710 | 15801 ft | 421 kts | 274° |
| 2026-04-27 11:06 | 7.88928 | 97.42747 | 16136 ft | 422 kts | 274° |
| 2026-04-27 11:06 | 7.89112 | 97.39779 | 16478 ft | 425 kts | 274° |
| 2026-04-27 11:06 | 7.89298 | 97.36799 | 16821 ft | 427 kts | 274° |
| 2026-04-27 11:06 | 7.89484 | 97.33800 | 17170 ft | 429 kts | 274° |
| 2026-04-27 11:07 | 7.89672 | 97.30782 | 17521 ft | 431 kts | 274° |
| 2026-04-27 11:07 | 7.89857 | 97.27794 | 17873 ft | 433 kts | 274° |
| 2026-04-27 11:07 | 7.90045 | 97.24762 | 18211 ft | 434 kts | 274° |
| 2026-04-27 11:07 | 7.90233 | 97.21722 | 18519 ft | 434 kts | 274° |
| 2026-04-27 11:08 | 7.90422 | 97.18671 | 18834 ft | 435 kts | 274° |
| 2026-04-27 11:08 | 7.90610 | 97.15623 | 19147 ft | 435 kts | 274° |
| 2026-04-27 11:08 | 7.90797 | 97.12583 | 19467 ft | 435 kts | 274° |
| 2026-04-27 11:08 | 7.90985 | 97.09542 | 19788 ft | 434 kts | 274° |
| 2026-04-27 11:09 | 7.91172 | 97.06502 | 20111 ft | 434 kts | 274° |
| 2026-04-27 11:09 | 7.91358 | 97.03462 | 20439 ft | 434 kts | 274° |
| 2026-04-27 11:09 | 7.91545 | 97.00428 | 20770 ft | 434 kts | 274° |
| 2026-04-27 11:09 | 7.91731 | 96.97389 | 21107 ft | 435 kts | 274° |
| 2026-04-27 11:10 | 7.91916 | 96.94368 | 21444 ft | 436 kts | 274° |
| 2026-04-27 11:10 | 7.92103 | 96.91306 | 21788 ft | 438 kts | 274° |
| 2026-04-27 11:10 | 7.92291 | 96.88232 | 22136 ft | 440 kts | 274° |
| 2026-04-27 11:10 | 7.92480 | 96.85139 | 22488 ft | 442 kts | 274° |
| 2026-04-27 11:11 | 7.92669 | 96.82029 | 22845 ft | 445 kts | 274° |
| 2026-04-27 11:11 | 7.92859 | 96.78908 | 23206 ft | 447 kts | 274° |
| 2026-04-27 11:11 | 7.93050 | 96.75774 | 23539 ft | 449 kts | 274° |
| 2026-04-27 11:11 | 7.93241 | 96.72626 | 23839 ft | 450 kts | 274° |
| 2026-04-27 11:12 | 7.93433 | 96.69464 | 24140 ft | 452 kts | 274° |
| 2026-04-27 11:12 | 7.93625 | 96.66289 | 24452 ft | 455 kts | 274° |
| 2026-04-27 11:12 | 7.93818 | 96.63096 | 24764 ft | 458 kts | 274° |
| 2026-04-27 11:12 | 7.94013 | 96.59871 | 25077 ft | 462 kts | 274° |
| 2026-04-27 11:13 | 7.94209 | 96.56626 | 25395 ft | 465 kts | 274° |
| 2026-04-27 11:13 | 7.94406 | 96.53356 | 25721 ft | 469 kts | 274° |
| 2026-04-27 11:13 | 7.94601 | 96.50106 | 26043 ft | 472 kts | 274° |
| 2026-04-27 11:13 | 7.94801 | 96.46791 | 26372 ft | 475 kts | 274° |
| 2026-04-27 11:14 | 7.95000 | 96.43459 | 26709 ft | 477 kts | 274° |
| 2026-04-27 11:14 | 7.95201 | 96.40106 | 27045 ft | 480 kts | 274° |
| 2026-04-27 11:14 | 7.95403 | 96.36731 | 27388 ft | 482 kts | 274° |
| 2026-04-27 11:14 | 7.95606 | 96.33347 | 27733 ft | 484 kts | 274° |
| 2026-04-27 11:15 | 7.95808 | 96.29951 | 28080 ft | 486 kts | 274° |
| 2026-04-27 11:15 | 7.96011 | 96.26542 | 28437 ft | 487 kts | 274° |
| 2026-04-27 11:15 | 7.96146 | 96.24286 | 28681 ft | 488 kts | 274° |
| 2026-04-27 11:15 | 7.96418 | 96.19705 | 29153 ft | 489 kts | 274° |
| 2026-04-27 11:16 | 7.96621 | 96.16275 | 29527 ft | 490 kts | 274° |
| 2026-04-27 11:16 | 7.96825 | 96.12834 | 29895 ft | 491 kts | 274° |
| 2026-04-27 11:16 | 7.97029 | 96.09393 | 30211 ft | 492 kts | 274° |
| 2026-04-27 11:16 | 7.97233 | 96.05947 | 30529 ft | 491 kts | 274° |
| 2026-04-27 11:17 | 7.97433 | 96.02554 | 30844 ft | 490 kts | 274° |
| 2026-04-27 11:17 | 7.97635 | 95.99122 | 31170 ft | 489 kts | 273° |
| 2026-04-27 11:17 | 7.97836 | 95.95701 | 31499 ft | 488 kts | 273° |
| 2026-04-27 11:17 | 7.98037 | 95.92285 | 31832 ft | 487 kts | 273° |
| 2026-04-27 11:18 | 7.98237 | 95.88872 | 32169 ft | 485 kts | 273° |
| 2026-04-27 11:18 | 7.98370 | 95.86614 | 32401 ft | 485 kts | 273° |
| 2026-04-27 11:18 | 7.98568 | 95.83220 | 32736 ft | 483 kts | 273° |
| 2026-04-27 11:18 | 7.98833 | 95.78694 | 33207 ft | 482 kts | 273° |
| 2026-04-27 11:19 | 7.98963 | 95.76461 | 33452 ft | 481 kts | 273° |
| 2026-04-27 11:19 | 7.99160 | 95.73088 | 33754 ft | 480 kts | 273° |
| 2026-04-27 11:19 | 7.99550 | 95.66394 | 33824 ft | 476 kts | 273° |
| 2026-04-27 11:20 | 7.99934 | 95.59764 | 33829 ft | 476 kts | 273° |
| 2026-04-27 11:20 | 8.00422 | 95.53104 | 33827 ft | 476 kts | 279° |
| 2026-04-27 11:21 | 8.02463 | 95.46782 | 33827 ft | 476 kts | 295° |
| 2026-04-27 11:21 | 8.05440 | 95.40807 | 33828 ft | 476 kts | 298° |
| 2026-04-27 11:22 | 8.08584 | 95.34927 | 33826 ft | 476 kts | 298° |
| 2026-04-27 11:22 | 8.11728 | 95.29045 | 33827 ft | 475 kts | 298° |
| 2026-04-27 11:23 | 8.14841 | 95.23154 | 33831 ft | 475 kts | 298° |
| 2026-04-27 11:23 | 8.17936 | 95.17262 | 33827 ft | 475 kts | 298° |
| 2026-04-27 11:24 | 8.21028 | 95.11366 | 33831 ft | 475 kts | 298° |
| 2026-04-27 11:24 | 8.24101 | 95.05506 | 33831 ft | 475 kts | 298° |
| 2026-04-27 11:25 | 8.27194 | 94.99608 | 33830 ft | 475 kts | 298° |
| 2026-04-27 11:25 | 8.30283 | 94.93714 | 33833 ft | 475 kts | 298° |
| 2026-04-27 11:26 | 8.33371 | 94.87821 | 33830 ft | 476 kts | 298° |
| 2026-04-27 11:26 | 8.36465 | 94.81914 | 33830 ft | 475 kts | 298° |
| 2026-04-27 11:27 | 8.39551 | 94.76019 | 33827 ft | 474 kts | 298° |
| 2026-04-27 11:27 | 8.42614 | 94.70164 | 33828 ft | 474 kts | 298° |
| 2026-04-27 11:28 | 8.45699 | 94.64267 | 33824 ft | 474 kts | 298° |
| 2026-04-27 11:28 | 8.48783 | 94.58368 | 33828 ft | 475 kts | 298° |
| 2026-04-27 11:29 | 8.51867 | 94.52467 | 33832 ft | 474 kts | 298° |
| 2026-04-27 11:29 | 8.54948 | 94.46568 | 33831 ft | 474 kts | 298° |
| 2026-04-27 11:30 | 8.58060 | 94.40702 | 33830 ft | 473 kts | 300° |
| 2026-04-27 11:30 | 8.61480 | 94.35051 | 33830 ft | 475 kts | 303° |
| 2026-04-27 11:31 | 8.65039 | 94.29436 | 33834 ft | 474 kts | 303° |
| 2026-04-27 11:31 | 8.68588 | 94.23800 | 33832 ft | 476 kts | 302° |
| 2026-04-27 11:32 | 8.72118 | 94.18134 | 33830 ft | 475 kts | 302° |
| 2026-04-27 11:32 | 8.75607 | 94.12502 | 33832 ft | 475 kts | 302° |
| 2026-04-27 11:33 | 8.79111 | 94.06842 | 33831 ft | 475 kts | 302° |
| 2026-04-27 11:33 | 8.82610 | 94.01185 | 33834 ft | 475 kts | 301° |
| 2026-04-27 11:34 | 8.85680 | 93.95287 | 33834 ft | 475 kts | 296° |
| 2026-04-27 11:34 | 8.88602 | 93.89309 | 33837 ft | 475 kts | 296° |
| 2026-04-27 11:35 | 8.91499 | 93.83299 | 33830 ft | 475 kts | 296° |
| 2026-04-27 11:35 | 8.94391 | 93.77302 | 33828 ft | 473 kts | 296° |
| 2026-04-27 11:36 | 8.97271 | 93.71348 | 33825 ft | 470 kts | 296° |
| 2026-04-27 11:36 | 9.00132 | 93.65440 | 33828 ft | 471 kts | 296° |
| 2026-04-27 11:37 | 9.03016 | 93.59482 | 33833 ft | 471 kts | 296° |
| 2026-04-27 11:37 | 9.05896 | 93.53527 | 33829 ft | 471 kts | 296° |
| 2026-04-27 11:38 | 9.08769 | 93.47581 | 33831 ft | 468 kts | 296° |
| 2026-04-27 11:38 | 9.11612 | 93.41695 | 33829 ft | 464 kts | 296° |
| 2026-04-27 11:39 | 9.14453 | 93.35812 | 33831 ft | 464 kts | 296° |
| 2026-04-27 11:39 | 9.17287 | 93.29940 | 33831 ft | 464 kts | 296° |
| 2026-04-27 11:40 | 9.20102 | 93.24103 | 33829 ft | 464 kts | 296° |
| 2026-04-27 11:40 | 9.22938 | 93.18221 | 33826 ft | 464 kts | 296° |
| 2026-04-27 11:41 | 9.25765 | 93.12354 | 33824 ft | 464 kts | 296° |
| 2026-04-27 11:41 | 9.28596 | 93.06476 | 33824 ft | 464 kts | 296° |
| 2026-04-27 11:42 | 9.31418 | 93.00613 | 33828 ft | 462 kts | 296° |
| 2026-04-27 11:42 | 9.34218 | 92.94795 | 33825 ft | 462 kts | 296° |
| 2026-04-27 11:43 | 9.37033 | 92.88941 | 33828 ft | 462 kts | 296° |
| 2026-04-27 11:43 | 9.39848 | 92.83085 | 33823 ft | 462 kts | 296° |
| 2026-04-27 11:44 | 9.42660 | 92.77232 | 33826 ft | 462 kts | 296° |
| 2026-04-27 11:44 | 9.45474 | 92.71371 | 33827 ft | 462 kts | 296° |
| 2026-04-27 11:45 | 9.47810 | 92.66502 | 33832 ft | 461 kts | 296° |
| 2026-04-27 11:45 | 9.51069 | 92.59710 | 33828 ft | 462 kts | 296° |
| 2026-04-27 11:46 | 9.53876 | 92.53855 | 33825 ft | 462 kts | 296° |
| 2026-04-27 11:46 | 9.56679 | 92.48006 | 33827 ft | 461 kts | 296° |
| 2026-04-27 11:47 | 9.59482 | 92.42154 | 33821 ft | 461 kts | 296° |
| 2026-04-27 11:47 | 9.62285 | 92.36299 | 33822 ft | 462 kts | 296° |
| 2026-04-27 11:48 | 9.65087 | 92.30443 | 33828 ft | 462 kts | 296° |
| 2026-04-27 11:48 | 9.67882 | 92.24597 | 33828 ft | 459 kts | 296° |
| 2026-04-27 11:49 | 9.70662 | 92.18781 | 33827 ft | 457 kts | 297° |
| 2026-04-27 11:49 | 9.73435 | 92.12977 | 33826 ft | 458 kts | 296° |
| 2026-04-27 11:50 | 9.76193 | 92.07201 | 33824 ft | 458 kts | 296° |
| 2026-04-27 11:50 | 9.78974 | 92.01373 | 33824 ft | 459 kts | 297° |
| 2026-04-27 11:51 | 9.81749 | 91.95556 | 33831 ft | 458 kts | 296° |
| 2026-04-27 11:52 | 9.85901 | 91.86845 | 33829 ft | 457 kts | 296° |
| 2026-04-27 11:52 | 9.88663 | 91.81047 | 33832 ft | 456 kts | 296° |
| 2026-04-27 11:53 | 9.91429 | 91.75238 | 33830 ft | 457 kts | 296° |
| 2026-04-27 11:53 | 9.94193 | 91.69429 | 33829 ft | 457 kts | 296° |
| 2026-04-27 11:54 | 9.96934 | 91.63664 | 33826 ft | 456 kts | 297° |
| 2026-04-27 11:54 | 9.99694 | 91.57860 | 33827 ft | 457 kts | 297° |
| 2026-04-27 11:55 | 10.02451 | 91.52056 | 33827 ft | 457 kts | 296° |
| 2026-04-27 11:55 | 10.05211 | 91.46244 | 33830 ft | 457 kts | 296° |
| 2026-04-27 11:56 | 10.07970 | 91.40430 | 33827 ft | 457 kts | 297° |
| 2026-04-27 11:56 | 10.10722 | 91.34627 | 33825 ft | 456 kts | 296° |
| 2026-04-27 11:57 | 10.13459 | 91.28853 | 33830 ft | 456 kts | 296° |
| 2026-04-27 11:57 | 10.16214 | 91.23039 | 33829 ft | 457 kts | 296° |
| 2026-04-27 11:58 | 10.18972 | 91.17216 | 33826 ft | 457 kts | 296° |
| 2026-04-27 11:58 | 10.21724 | 91.11401 | 33828 ft | 457 kts | 297° |
| 2026-04-27 11:59 | 10.24473 | 91.05588 | 33828 ft | 457 kts | 296° |
| 2026-04-27 11:59 | 10.27224 | 90.99770 | 33829 ft | 457 kts | 297° |
| 2026-04-27 12:00 | 10.29976 | 90.93947 | 33831 ft | 457 kts | 296° |
| 2026-04-27 12:00 | 10.32706 | 90.88167 | 33831 ft | 457 kts | 296° |
| 2026-04-27 12:01 | 10.35452 | 90.82347 | 33830 ft | 456 kts | 297° |
| 2026-04-27 12:01 | 10.38196 | 90.76532 | 33829 ft | 457 kts | 296° |
| 2026-04-27 12:02 | 10.40942 | 90.70707 | 33829 ft | 457 kts | 297° |
| 2026-04-27 12:02 | 10.43689 | 90.64877 | 33830 ft | 458 kts | 297° |
| 2026-04-27 12:03 | 10.46418 | 90.59082 | 33828 ft | 457 kts | 296° |
| 2026-04-27 12:03 | 10.49157 | 90.53261 | 33829 ft | 457 kts | 296° |
| 2026-04-27 12:04 | 10.51901 | 90.47428 | 33828 ft | 457 kts | 296° |
| 2026-04-27 12:04 | 10.54642 | 90.41599 | 33829 ft | 458 kts | 296° |
| 2026-04-27 12:05 | 10.57386 | 90.35759 | 33826 ft | 457 kts | 296° |
| 2026-04-27 12:05 | 10.60127 | 90.29924 | 33826 ft | 457 kts | 296° |
| 2026-04-27 12:06 | 10.62864 | 90.24090 | 33829 ft | 457 kts | 296° |
| 2026-04-27 12:06 | 10.65598 | 90.18263 | 33829 ft | 457 kts | 296° |
| 2026-04-27 12:07 | 10.68332 | 90.12431 | 33831 ft | 457 kts | 296° |
| 2026-04-27 12:07 | 10.70604 | 90.07581 | 33829 ft | 457 kts | 296° |
| 2026-04-27 12:08 | 10.73960 | 90.00903 | 33827 ft | 455 kts | 304° |
| 2026-04-27 12:08 | 10.77377 | 89.96795 | 33830 ft | 455 kts | 315° |
| 2026-04-27 12:09 | 10.81915 | 89.92304 | 33829 ft | 454 kts | 317° |
| 2026-04-27 12:09 | 10.86512 | 89.87960 | 33829 ft | 453 kts | 318° |
| 2026-04-27 12:10 | 10.91130 | 89.83592 | 33829 ft | 453 kts | 317° |
| 2026-04-27 12:10 | 10.95735 | 89.79200 | 33827 ft | 454 kts | 317° |
| 2026-04-27 12:11 | 11.00341 | 89.74787 | 33828 ft | 454 kts | 317° |
| 2026-04-27 12:11 | 11.04947 | 89.70367 | 33829 ft | 454 kts | 317° |
| 2026-04-27 12:12 | 11.09512 | 89.65987 | 33829 ft | 453 kts | 317° |
| 2026-04-27 12:12 | 11.14112 | 89.61573 | 33829 ft | 454 kts | 317° |
| 2026-04-27 12:13 | 11.18708 | 89.57161 | 33827 ft | 454 kts | 317° |
| 2026-04-27 12:13 | 11.23316 | 89.52736 | 33832 ft | 455 kts | 317° |
| 2026-04-27 12:14 | 11.27924 | 89.48308 | 33834 ft | 456 kts | 317° |
| 2026-04-27 12:14 | 11.32541 | 89.43869 | 33820 ft | 456 kts | 316° |
| 2026-04-27 12:15 | 11.37118 | 89.39467 | 33826 ft | 454 kts | 316° |